Time;durP1;ratioP1;P1;durP2;ratioP2;P2;SDS_P1;SDS_P2;PMS_P1;PMS_P2;Temp;Humidity;BMP_temperature;BMP_pressure;BME280_temperature;BME280_humidity;BME280_pressure;Samples;Min_cycle;Max_cycle;Signal;HPM_P1;HPM_P2
2023/09/26 00:00:56;;;;;;;17.27;5.25;;;;;;;19.80;85.18;94975.22;5152256;27;20180;-47
2023/09/26 00:03:22;;;;;;;12.40;5.25;;;;;;;19.80;85.34;94969.25;5135266;27;20622;-45
2023/09/26 00:05:49;;;;;;;8.68;5.07;;;;;;;19.76;85.57;94966.22;5131770;27;20671;-46
2023/09/26 00:08:16;;;;;;;15.35;5.47;;;;;;;19.76;85.64;94965.41;5131740;27;20189;-45
2023/09/26 00:10:46;;;;;;;7.80;4.80;;;;;;;19.75;85.67;94959.41;5131659;27;20262;-45
2023/09/26 00:13:13;;;;;;;11.63;5.40;;;;;;;19.74;85.68;94957.03;5131921;27;20283;-46
2023/09/26 00:15:40;;;;;;;9.00;5.43;;;;;;;19.66;85.96;94960.53;5131970;27;20184;-45
2023/09/26 00:18:07;;;;;;;8.27;4.80;;;;;;;19.66;86.41;94963.13;5131787;27;20245;-45
2023/09/26 00:20:38;;;;;;;8.93;5.10;;;;;;;19.65;86.33;94956.34;5131442;27;20342;-46
2023/09/26 00:23:06;;;;;;;7.93;5.00;;;;;;;19.63;86.64;94958.31;5131653;27;20234;-46
2023/09/26 00:25:33;;;;;;;12.20;5.85;;;;;;;19.58;86.86;94960.63;5131464;27;20212;-47
2023/09/26 00:28:01;;;;;;;14.07;5.75;;;;;;;19.64;86.29;94964.31;5131778;27;20192;-45
2023/09/26 00:30:28;;;;;;;6.40;5.10;;;;;;;19.58;86.90;94965.03;5131489;27;20224;-45
2023/09/26 00:32:55;;;;;;;12.27;5.80;;;;;;;19.57;87.20;94960.84;5131056;27;20180;-45
2023/09/26 00:35:22;;;;;;;11.85;5.93;;;;;;;19.57;87.54;94971.22;5131553;27;20633;-46
2023/09/26 00:37:50;;;;;;;7.85;5.38;;;;;;;19.54;87.85;94962.81;5130933;27;20576;-45
2023/09/26 00:40:21;;;;;;;7.25;5.45;;;;;;;19.54;87.72;94965.41;5131043;27;20699;-44
2023/09/26 00:42:48;;;;;;;10.10;5.40;;;;;;;19.52;88.13;94966.59;5130856;27;20212;-45
2023/09/26 00:45:16;;;;;;;9.57;5.25;;;;;;;19.50;88.36;94964.16;5131354;27;20241;-49
2023/09/26 00:47:44;;;;;;;15.65;5.00;;;;;;;19.39;88.58;94963.88;5130509;27;20223;-45
2023/09/26 00:50:12;;;;;;;10.27;5.07;;;;;;;19.35;88.49;94963.44;5130845;27;20199;-45
2023/09/26 00:52:41;;;;;;;13.40;5.45;;;;;;;19.32;88.12;94956.00;5130585;27;20188;-45
2023/09/26 00:55:09;;;;;;;7.85;5.30;;;;;;;19.27;87.65;94959.16;5131086;27;20180;-44
2023/09/26 00:57:38;;;;;;;10.70;5.07;;;;;;;19.26;86.33;94975.72;5130844;27;20191;-45
2023/09/26 01:00:08;;;;;;;10.05;5.65;;;;;;;19.22;86.90;94971.09;5130443;27;20180;-46
2023/09/26 01:02:36;;;;;;;14.30;5.65;;;;;;;19.15;87.32;94970.19;5130898;27;20239;-45
2023/09/26 01:05:03;;;;;;;11.70;5.57;;;;;;;19.16;87.99;94975.19;5130152;27;20196;-46
2023/09/26 01:07:31;;;;;;;8.73;5.35;;;;;;;19.13;87.75;94964.38;5138524;27;20678;-45
2023/09/26 01:09:58;;;;;;;10.88;4.88;;;;;;;18.66;87.83;94895.69;5151049;27;20203;-47
2023/09/26 01:12:26;;;;;;;11.63;4.73;;;;;;;19.10;87.39;94962.19;5151036;27;20215;-44
2023/09/26 01:14:53;;;;;;;10.10;5.33;;;;;;;19.05;87.84;94962.72;5151408;27;20270;-44
2023/09/26 01:17:19;;;;;;;11.63;5.80;;;;;;;19.01;87.86;94956.31;5172075;27;20556;-45
2023/09/26 01:19:48;;;;;;;14.67;5.80;;;;;;;19.01;87.60;94958.91;5154789;27;20187;-46
2023/09/26 01:22:18;;;;;;;8.10;4.72;;;;;;;19.02;87.36;94961.28;5159208;27;20265;-45
2023/09/26 01:24:46;;;;;;;11.73;5.93;;;;;;;18.97;87.52;94958.44;5170831;27;20183;-47
2023/09/26 01:27:13;;;;;;;9.53;5.67;;;;;;;18.92;87.66;94939.25;5148109;27;20234;-45
2023/09/26 01:29:40;;;;;;;14.17;5.07;;;;;;;18.93;88.00;94952.03;5150960;27;20233;-44
2023/09/26 01:32:07;;;;;;;8.77;5.57;;;;;;;18.91;88.51;94951.41;5150992;27;20197;-45
2023/09/26 01:34:34;;;;;;;12.97;5.57;;;;;;;18.91;88.97;94955.78;5151012;27;20180;-45
2023/09/26 01:37:00;;;;;;;9.23;6.07;;;;;;;18.42;88.79;94883.84;5152979;27;20682;-45
2023/09/26 01:39:27;;;;;;;16.80;5.83;;;;;;;18.84;89.61;94954.91;5171804;27;20190;-43
2023/09/26 01:41:56;;;;;;;8.97;5.20;;;;;;;18.83;89.74;94953.31;5171603;27;20222;-45
2023/09/26 01:44:23;;;;;;;8.13;5.10;;;;;;;18.85;89.70;94956.50;5161789;27;20317;-44
2023/09/26 01:46:49;;;;;;;11.00;5.93;;;;;;;18.88;89.57;94959.56;5150653;27;20599;-45
2023/09/26 01:49:16;;;;;;;8.80;5.73;;;;;;;18.86;89.44;94953.72;5150683;27;20207;-47
2023/09/26 01:51:43;;;;;;;10.97;5.33;;;;;;;18.86;89.41;94960.72;5150453;27;20259;-45
2023/09/26 01:54:10;;;;;;;10.40;5.73;;;;;;;18.84;89.68;94958.31;5150846;27;20252;-45
2023/09/26 01:56:36;;;;;;;11.52;5.55;;;;;;;18.32;89.34;94889.31;5150226;27;20272;-46
2023/09/26 01:59:04;;;;;;;13.13;5.80;;;;;;;18.78;89.33;94957.25;5150810;27;20191;-46
2023/09/26 02:01:31;;;;;;;11.77;5.40;;;;;;;18.76;89.75;94966.97;5150281;27;20199;-45
2023/09/26 02:03:58;;;;;;;15.30;5.70;;;;;;;18.33;89.80;94900.47;5150805;27;20192;-46
2023/09/26 02:06:25;;;;;;;12.20;6.07;;;;;;;18.74;89.68;94965.56;5154578;27;20240;-45
2023/09/26 02:08:51;;;;;;;11.87;6.77;;;;;;;18.72;90.07;94962.34;5155075;27;20200;-46
2023/09/26 02:11:18;;;;;;;8.93;5.73;;;;;;;18.59;90.13;94949.19;5165800;27;20234;-47
2023/09/26 02:13:45;;;;;;;12.07;5.50;;;;;;;18.71;89.98;94966.72;5176022;27;20187;-44
2023/09/26 02:16:13;;;;;;;13.87;5.40;;;;;;;18.67;89.85;94973.22;5175159;27;20632;-45
2023/09/26 02:18:40;;;;;;;13.73;5.40;;;;;;;18.67;89.91;94968.03;5175283;27;20190;-44
2023/09/26 02:21:06;;;;;;;10.30;5.97;;;;;;;18.63;90.01;94958.22;5174610;27;20175;-46
2023/09/26 02:23:33;;;;;;;7.20;5.07;;;;;;;18.66;89.85;94970.81;5175249;27;20218;-45
2023/09/26 02:26:00;;;;;;;14.03;5.67;;;;;;;18.63;89.79;94963.41;5175437;27;20294;-45
2023/09/26 02:28:27;;;;;;;15.40;5.80;;;;;;;18.62;89.32;94959.22;5174990;27;20191;-47
2023/09/26 02:30:53;;;;;;;8.07;5.40;;;;;;;18.63;89.13;94960.81;5175324;27;20198;-46
2023/09/26 02:33:21;;;;;;;9.90;5.43;;;;;;;18.40;88.80;94925.47;5174851;27;20187;-45
2023/09/26 02:35:48;;;;;;;10.67;5.70;;;;;;;18.62;88.84;94957.41;5174580;27;20191;-45
2023/09/26 02:38:15;;;;;;;14.13;5.60;;;;;;;18.62;88.81;94956.63;5174661;27;20236;-44
2023/09/26 02:40:42;;;;;;;9.20;5.37;;;;;;;18.61;88.80;94953.22;5175314;27;20198;-45
2023/09/26 02:43:08;;;;;;;11.53;5.93;;;;;;;18.61;88.83;94957.59;5177575;27;20210;-45
2023/09/26 02:45:35;;;;;;;10.37;5.70;;;;;;;18.52;89.41;94949.94;5179722;27;20179;-45
2023/09/26 02:48:04;;;;;;;6.73;5.80;;;;;;;18.55;89.20;94952.16;5158625;27;20191;-46
2023/09/26 02:50:32;;;;;;;8.13;4.60;;;;;;;18.59;89.07;94954.38;5155506;27;20243;-48
2023/09/26 02:52:59;;;;;;;10.73;5.07;;;;;;;18.58;89.02;94958.75;5158172;27;20194;-46
2023/09/26 02:55:26;;;;;;;11.37;5.93;;;;;;;18.55;88.62;94951.34;5159660;27;20179;-45
2023/09/26 02:57:52;;;;;;;10.13;5.40;;;;;;;18.55;88.23;94952.16;5156973;27;20198;-45
2023/09/26 03:00:20;;;;;;;13.67;5.07;;;;;;;18.59;87.70;94950.00;5154479;27;20188;-45
2023/09/26 03:02:47;;;;;;;11.37;5.60;;;;;;;18.56;86.85;94958.13;5153908;27;20219;-46
2023/09/26 03:05:14;;;;;;;6.17;4.57;;;;;;;18.53;85.99;94954.13;5153820;27;20199;-47
2023/09/26 03:07:43;;;;;;;9.03;5.20;;;;;;;18.54;85.17;94960.91;5155117;27;20616;-46
2023/09/26 03:10:11;;;;;;;17.20;5.57;;;;;;;18.45;84.88;94964.56;5153993;27;20180;-45
2023/09/26 03:12:38;;;;;;;13.00;5.50;;;;;;;18.50;84.88;94964.03;5153329;27;20656;-45
2023/09/26 03:15:06;;;;;;;8.20;4.60;;;;;;;18.46;84.57;94966.19;5153136;27;20188;-44
2023/09/26 03:17:33;;;;;;;10.73;4.77;;;;;;;18.46;83.68;94968.75;5172586;27;20183;-44
2023/09/26 03:20:00;;;;;;;10.23;5.00;;;;;;;18.50;83.09;94969.22;5173914;27;20193;-45
2023/09/26 03:22:27;;;;;;;11.60;5.17;;;;;;;18.46;82.88;94971.34;5173751;27;20214;-44
2023/09/26 03:24:55;;;;;;;9.87;5.53;;;;;;;18.45;83.55;94968.94;5154825;27;20236;-45
2023/09/26 03:27:22;;;;;;;9.60;5.03;;;;;;;18.44;83.78;94965.56;5152774;27;20246;-46
2023/09/26 03:29:50;;;;;;;15.70;6.10;;;;;;;18.42;84.26;94971.91;5153175;27;20578;-44
2023/09/26 03:32:17;;;;;;;15.03;6.47;;;;;;;18.42;84.16;94967.50;5152823;27;20561;-46
2023/09/26 03:34:44;;;;;;;20.00;7.03;;;;;;;18.42;83.98;94969.31;5153158;27;20192;-44
2023/09/26 03:37:11;;;;;;;11.63;5.73;;;;;;;18.40;83.87;94971.28;5152880;27;20232;-45
2023/09/26 03:39:38;;;;;;;9.33;5.40;;;;;;;18.35;83.82;94969.22;5160475;27;20183;-46
2023/09/26 03:42:06;;;;;;;9.87;4.87;;;;;;;18.32;83.67;94972.16;5174547;27;20671;-47
2023/09/26 03:44:33;;;;;;;9.03;5.13;;;;;;;18.33;83.43;94973.78;5173221;27;20199;-45
2023/09/26 03:47:00;;;;;;;7.27;4.87;;;;;;;18.33;83.21;94986.72;5173422;27;20558;-45
2023/09/26 03:49:27;;;;;;;14.67;5.00;;;;;;;18.30;82.38;94972.31;5154524;27;20172;-46
2023/09/26 03:51:53;;;;;;;13.93;4.63;;;;;;;18.29;81.84;94975.09;5152712;27;20576;-46
2023/09/26 03:54:20;;;;;;;7.30;4.67;;;;;;;18.29;81.65;94985.47;5152596;27;20274;-46
2023/09/26 03:56:47;;;;;;;10.70;4.90;;;;;;;18.27;80.57;94977.88;5152622;27;20251;-46
2023/09/26 03:59:16;;;;;;;14.83;5.30;;;;;;;18.31;79.76;94986.09;5152872;27;20537;-46
2023/09/26 04:01:43;;;;;;;7.17;3.93;;;;;;;18.29;79.00;94985.47;5158417;27;20175;-46
2023/09/26 04:04:09;;;;;;;12.50;4.93;;;;;;;18.27;78.40;94983.06;5173182;27;20206;-44
2023/09/26 04:06:38;;;;;;;15.93;5.20;;;;;;;18.26;77.71;94984.06;5174043;27;20283;-45
2023/09/26 04:09:05;;;;;;;19.20;5.57;;;;;;;18.29;77.10;94985.47;5173220;27;20668;-45
2023/09/26 04:11:31;;;;;;;9.73;4.40;;;;;;;18.29;76.34;94986.25;5169246;27;20182;-41
2023/09/26 04:13:58;;;;;;;18.00;5.80;;;;;;;18.31;76.43;94988.69;5172747;27;20191;-45
2023/09/26 04:16:27;;;;;;;10.43;4.63;;;;;;;18.29;75.97;94986.25;5172930;27;20195;-45
2023/09/26 04:18:54;;;;;;;14.27;4.90;;;;;;;18.28;75.75;94989.84;5170817;27;20754;-44
2023/09/26 04:21:20;;;;;;;8.73;4.37;;;;;;;18.17;75.42;94968.75;5172799;27;20179;-45
2023/09/26 04:23:47;;;;;;;10.97;4.70;;;;;;;18.31;76.55;94993.88;5172188;27;20219;-45
2023/09/26 04:26:15;;;;;;;10.23;4.70;;;;;;;18.40;77.17;94992.00;5171178;27;20222;-45
2023/09/26 04:28:43;;;;;;;15.17;4.73;;;;;;;18.50;76.21;94993.31;5172430;27;20187;-45
2023/09/26 04:31:13;;;;;;;13.33;4.30;;;;;;;18.49;74.84;94996.91;5172408;27;20187;-44
2023/09/26 04:33:42;;;;;;;16.67;4.60;;;;;;;18.51;73.86;94999.31;5165602;27;20279;-45
2023/09/26 04:36:08;;;;;;;9.97;4.67;;;;;;;18.42;73.34;94982.25;5151724;27;20244;-44
2023/09/26 04:38:35;;;;;;;11.60;4.63;;;;;;;18.54;72.96;94997.16;5151937;27;20207;-47
2023/09/26 04:41:03;;;;;;;7.27;4.17;;;;;;;18.47;72.40;94975.53;5151954;27;20204;-45
2023/09/26 04:43:31;;;;;;;17.47;4.70;;;;;;;18.58;71.79;94989.84;5154344;27;20306;-44
2023/09/26 04:45:57;;;;;;;10.20;4.00;;;;;;;18.59;71.32;94990.66;5172198;27;20191;-44
2023/09/26 04:48:24;;;;;;;21.00;4.83;;;;;;;18.60;71.06;94998.22;5172362;27;20206;-44
2023/09/26 04:50:54;;;;;;;13.73;3.87;;;;;;;18.68;70.81;95002.53;5172624;27;20179;-45
2023/09/26 04:53:21;;;;;;;15.93;4.70;;;;;;;18.72;71.03;95002.00;5172844;27;20187;-44
2023/09/26 04:55:48;;;;;;;17.33;4.53;;;;;;;18.71;71.07;95004.78;5172440;27;20214;-45
2023/09/26 04:58:15;;;;;;;11.50;4.17;;;;;;;18.77;70.49;95015.22;5172376;27;20663;-44
2023/09/26 05:00:42;;;;;;;13.07;4.30;;;;;;;18.86;70.61;95010.75;5172070;27;20556;-44
2023/09/26 05:03:08;;;;;;;16.23;4.50;;;;;;;18.93;71.26;95016.81;5170519;27;20243;-45
2023/09/26 05:05:35;;;;;;;15.33;4.27;;;;;;;19.06;70.34;95005.81;5172599;27;20183;-45
2023/09/26 05:08:04;;;;;;;9.90;4.17;;;;;;;19.27;69.52;95008.44;5172975;27;20187;-46
2023/09/26 05:10:31;;;;;;;10.35;4.32;;;;;;;19.50;68.64;95015.25;5172132;27;20615;-45
2023/09/26 05:12:58;;;;;;;12.82;4.18;;;;;;;19.70;67.66;95012.88;5172586;27;20194;-45
2023/09/26 05:15:25;;;;;;;11.25;4.88;;;;;;;19.93;67.25;95016.06;5169704;27;20187;-45
2023/09/26 05:17:52;;;;;;;10.30;4.80;;;;;;;20.09;66.10;95016.78;5158145;27;20198;-44
2023/09/26 05:20:20;;;;;;;10.88;4.35;;;;;;;20.30;67.03;95016.75;5140350;27;20188;-44
2023/09/26 05:22:48;;;;;;;12.05;4.18;;;;;;;20.53;65.21;95008.72;5148651;27;20211;-44
2023/09/26 05:25:16;;;;;;;12.68;4.43;;;;;;;20.57;63.75;94991.75;5151317;27;20668;-43
2023/09/26 05:27:43;;;;;;;18.30;5.28;;;;;;;20.79;63.10;95026.25;5150366;27;20228;-44
2023/09/26 05:30:12;;;;;;;13.32;4.50;;;;;;;20.82;63.23;95030.28;5149963;27;20192;-44
2023/09/26 05:32:40;;;;;;;14.20;4.43;;;;;;;20.99;62.91;95028.97;5148774;27;20279;-44
2023/09/26 05:35:08;;;;;;;13.25;4.35;;;;;;;21.32;62.54;95021.28;5148935;27;20218;-45
2023/09/26 05:37:35;;;;;;;9.85;4.50;;;;;;;21.74;62.37;95024.56;5147893;27;20351;-44
2023/09/26 05:40:06;;;;;;;11.15;4.15;;;;;;;22.04;60.79;94999.75;5148977;27;20183;-42
2023/09/26 05:42:35;;;;;;;11.80;4.00;;;;;;;22.61;59.12;95026.16;5149435;27;20240;-45
2023/09/26 05:45:03;;;;;;;12.77;4.18;;;;;;;22.93;58.18;95029.75;5149763;27;20276;-44
2023/09/26 05:47:30;;;;;;;10.93;3.97;;;;;;;23.33;56.82;95028.78;5150374;27;20187;-45
2023/09/26 05:49:56;;;;;;;14.32;3.42;;;;;;;23.67;55.70;95033.63;5149674;27;20195;-43
2023/09/26 05:52:23;;;;;;;10.65;3.83;;;;;;;23.97;54.80;95033.84;5149387;27;20198;-45
2023/09/26 05:54:50;;;;;;;18.15;3.80;;;;;;;24.19;54.66;95023.00;5150437;27;20180;-43
2023/09/26 05:57:17;;;;;;;14.98;5.45;;;;;;;24.37;52.22;95033.53;5149402;27;20191;-45
2023/09/26 05:59:45;;;;;;;12.15;3.83;;;;;;;24.53;52.48;95026.97;5149912;27;20180;-44
2023/09/26 06:02:14;;;;;;;11.18;4.25;;;;;;;24.86;51.61;95034.44;5149610;27;20183;-51
2023/09/26 06:04:44;;;;;;;13.18;4.40;;;;;;;25.04;50.81;95049.34;5152970;27;20231;-45
2023/09/26 06:07:11;;;;;;;12.57;4.00;;;;;;;25.21;50.07;95042.53;5150313;27;20191;-45
2023/09/26 06:09:39;;;;;;;15.20;5.88;;;;;;;25.20;49.32;95034.91;5146378;27;20575;-45
2023/09/26 06:12:06;;;;;;;14.13;3.72;;;;;;;25.49;50.41;95049.03;5150014;27;20192;-46
2023/09/26 06:14:34;;;;;;;11.50;5.00;;;;;;;25.13;49.11;94980.03;5149466;27;20199;-46
2023/09/26 06:17:02;;;;;;;8.10;3.83;;;;;;;25.65;49.27;95050.25;5149984;27;20184;-45
2023/09/26 06:19:29;;;;;;;9.13;3.50;;;;;;;25.74;49.22;95054.16;5147820;27;20180;-45
2023/09/26 06:21:56;;;;;;;13.90;4.35;;;;;;;25.85;49.24;95047.38;5150077;27;20192;-45
2023/09/26 06:24:23;;;;;;;10.40;4.10;;;;;;;26.00;48.97;95051.16;5149488;27;20574;-45
2023/09/26 06:26:50;;;;;;;8.70;4.15;;;;;;;26.17;48.61;95053.16;5149702;27;20223;-44
2023/09/26 06:29:17;;;;;;;15.38;4.22;;;;;;;26.18;48.07;95049.50;5149489;27;20188;-46
2023/09/26 06:31:43;;;;;;;18.50;4.60;;;;;;;26.22;47.77;95045.41;5149698;27;20187;-45
2023/09/26 06:34:12;;;;;;;7.80;3.53;;;;;;;26.24;47.75;95049.38;5149468;27;20195;-45
2023/09/26 06:36:38;;;;;;;8.88;3.90;;;;;;;26.35;47.95;95052.25;5149474;27;20198;-45
2023/09/26 06:39:05;;;;;;;9.55;3.70;;;;;;;26.49;48.25;95056.28;5149395;27;20198;-45
2023/09/26 06:41:32;;;;;;;14.93;4.43;;;;;;;26.38;47.06;95057.03;5149378;27;20191;-45
2023/09/26 06:43:59;;;;;;;7.43;3.25;;;;;;;26.18;48.14;95039.00;5149641;27;20676;-44
2023/09/26 06:46:26;;;;;;;9.00;3.30;;;;;;;25.99;48.29;95027.78;5152275;27;20195;-45
2023/09/26 06:48:53;;;;;;;16.23;4.18;;;;;;;26.09;47.93;95043.78;5149344;27;20180;-45
2023/09/26 06:51:21;;;;;;;11.13;4.95;;;;;;;26.16;48.38;95043.66;5150924;27;20223;-45
2023/09/26 06:53:49;;;;;;;11.77;3.80;;;;;;;26.34;48.13;95048.00;5153372;27;20222;-44
2023/09/26 06:56:15;;;;;;;16.08;4.57;;;;;;;26.48;47.56;95047.59;5152625;27;20307;-45
2023/09/26 06:58:42;;;;;;;16.75;4.40;;;;;;;26.51;47.68;95047.16;5153617;27;20190;-45
2023/09/26 07:01:17;;;;;;;13.48;3.92;;;;;;;26.49;47.71;95054.44;5152622;27;20180;-45
2023/09/26 07:03:44;;;;;;;7.60;4.05;;;;;;;26.43;48.08;95041.41;5150588;27;20210;-45
2023/09/26 07:06:13;;;;;;;9.95;3.50;;;;;;;26.49;48.19;95045.78;5152841;27;20188;-45
2023/09/26 07:08:42;;;;;;;15.75;3.88;;;;;;;26.52;47.94;95048.75;5153407;27;20657;-44
2023/09/26 07:11:10;;;;;;;14.70;4.13;;;;;;;26.42;47.77;95032.72;5152635;27;20180;-44
2023/09/26 07:13:37;;;;;;;11.18;4.18;;;;;;;26.40;47.72;95015.63;5152896;27;20680;-45
2023/09/26 07:16:06;;;;;;;9.93;3.55;;;;;;;26.68;47.69;95049.06;5153582;27;20667;-46
2023/09/26 07:18:33;;;;;;;8.30;3.97;;;;;;;26.74;47.69;95056.84;5153285;27;20191;-45
2023/09/26 07:21:04;;;;;;;13.18;3.50;;;;;;;26.47;46.97;95059.13;5152529;27;20195;-45
2023/09/26 07:23:31;;;;;;;23.27;4.70;;;;;;;26.26;48.39;95052.56;5152194;27;20219;-46
2023/09/26 07:26:07;;;;;;;14.98;4.53;;;;;;;26.31;48.75;95051.91;5154755;27;20219;-44
2023/09/26 07:28:35;;;;;;;9.65;3.90;;;;;;;26.46;48.06;95051.47;5150107;27;20290;-45
2023/09/26 07:31:02;;;;;;;9.25;3.90;;;;;;;26.37;48.02;95027.38;5149757;27;20234;-43
2023/09/26 07:33:29;;;;;;;16.88;4.57;;;;;;;26.42;48.49;95045.03;5152426;27;20302;-46
2023/09/26 07:35:56;;;;;;;9.63;3.65;;;;;;;26.43;48.29;95044.03;5153846;27;20661;-44
2023/09/26 07:38:22;;;;;;;8.45;3.78;;;;;;;26.43;48.37;95036.97;5152461;27;20192;-47
2023/09/26 07:40:49;;;;;;;9.68;3.78;;;;;;;26.49;47.38;95041.31;5152003;27;20192;-44
2023/09/26 07:43:17;;;;;;;14.30;3.95;;;;;;;26.55;47.67;95033.56;5151661;27;20189;-45
2023/09/26 07:45:44;;;;;;;11.32;4.28;;;;;;;26.61;47.57;95032.66;5152102;27;20192;-45
2023/09/26 07:48:11;;;;;;;17.02;4.43;;;;;;;26.71;47.54;95031.03;5152607;27;20178;-45
2023/09/26 07:50:38;;;;;;;14.75;3.97;;;;;;;26.82;46.59;95031.28;5151912;27;20191;-47
2023/09/26 07:53:05;;;;;;;16.55;3.80;;;;;;;26.95;48.31;95023.94;5151723;27;20206;-46
2023/09/26 07:55:31;;;;;;;16.33;3.95;;;;;;;27.14;46.54;95023.81;5151989;27;20195;-45
2023/09/26 07:57:58;;;;;;;13.40;4.35;;;;;;;27.22;45.80;95020.81;5151679;27;20198;-44
2023/09/26 08:00:27;;;;;;;12.18;3.55;;;;;;;27.27;45.67;95031.41;5151697;27;20895;-47
2023/09/26 08:02:53;;;;;;;11.10;4.07;;;;;;;27.32;45.82;95021.00;5151548;27;20183;-46
2023/09/26 08:05:20;;;;;;;16.05;4.55;;;;;;;27.51;46.06;95019.00;5151913;27;20227;-44
2023/09/26 08:07:48;;;;;;;21.27;4.55;;;;;;;27.26;44.20;95028.00;5152389;27;20742;-45
2023/09/26 08:10:15;;;;;;;11.50;4.10;;;;;;;26.86;45.66;95035.03;5151397;27;20296;-46
2023/09/26 08:12:42;;;;;;;23.80;4.72;;;;;;;26.60;45.72;95038.91;5150911;27;20277;-45
2023/09/26 08:15:09;;;;;;;14.43;4.40;;;;;;;26.57;46.91;95026.28;5150202;27;20187;-45
2023/09/26 08:17:38;;;;;;;12.98;4.55;;;;;;;26.64;46.06;95024.31;5152281;27;20203;-46
2023/09/26 08:20:05;;;;;;;15.50;4.38;;;;;;;26.23;45.62;94953.38;5151171;27;20219;-46
2023/09/26 08:22:32;;;;;;;7.88;3.72;;;;;;;26.75;45.34;95018.25;5151610;27;20195;-44
2023/09/26 08:24:59;;;;;;;13.55;4.60;;;;;;;26.93;44.98;95004.19;5151131;27;20222;-44
2023/09/26 08:27:26;;;;;;;18.40;5.18;;;;;;;26.92;44.95;95002.59;5151600;27;20245;-45
2023/09/26 08:29:53;;;;;;;11.90;4.30;;;;;;;26.85;44.41;94999.31;5151416;27;20184;-45
2023/09/26 08:32:19;;;;;;;13.98;4.43;;;;;;;26.56;44.75;95009.75;5152937;27;20206;-45
2023/09/26 08:34:48;;;;;;;8.73;3.88;;;;;;;26.24;45.09;95009.25;5150828;27;20199;-44
2023/09/26 08:37:14;;;;;;;17.27;3.97;;;;;;;26.21;46.25;95004.47;5151271;27;20255;-44
2023/09/26 08:39:43;;;;;;;16.30;3.95;;;;;;;26.31;46.47;94998.66;5150636;27;20192;-45
2023/09/26 08:42:14;;;;;;;12.93;4.75;;;;;;;26.40;45.62;95003.31;5151101;27;20244;-45
2023/09/26 08:44:42;;;;;;;14.68;4.18;;;;;;;26.29;45.97;95001.47;5150838;27;20227;-46
2023/09/26 08:47:11;;;;;;;13.38;4.45;;;;;;;26.37;45.75;95009.00;5150683;27;20664;-45
2023/09/26 08:49:40;;;;;;;10.55;4.25;;;;;;;26.42;46.07;95000.47;5152584;27;20207;-46
2023/09/26 08:52:23;;;;;;;15.02;4.13;;;;;;;26.57;45.41;95008.72;5152468;27;20183;-45
2023/09/26 08:54:58;;;;;;;16.35;3.78;;;;;;;26.63;44.75;95010.41;5150505;27;20191;-44
2023/09/26 08:57:26;;;;;;;11.40;3.90;;;;;;;26.62;43.35;95019.31;5150824;27;20206;-44
2023/09/26 08:59:55;;;;;;;9.35;3.90;;;;;;;26.55;43.98;95013.38;5150653;27;20252;-44
2023/09/26 09:02:22;;;;;;;13.10;4.30;;;;;;;26.51;44.50;95004.34;5151676;27;20196;-46
2023/09/26 09:04:49;;;;;;;7.00;3.45;;;;;;;26.37;44.46;95011.63;5150249;27;20226;-45
2023/09/26 09:07:16;;;;;;;9.85;3.83;;;;;;;25.93;44.33;94992.81;5150650;27;20207;-45
2023/09/26 09:10:06;;;;;;;13.43;3.80;;;;;;;25.94;45.25;95009.31;5150438;27;20199;-43
2023/09/26 09:12:33;;;;;;;11.70;3.95;;;;;;;25.75;45.75;95006.75;5151011;27;20179;-45
2023/09/26 09:15:00;;;;;;;11.93;3.70;;;;;;;25.59;45.45;95011.84;5149143;27;20187;-44
2023/09/26 09:17:27;;;;;;;10.40;4.10;;;;;;;25.47;45.96;95015.19;5151924;27;20204;-43
2023/09/26 09:19:54;;;;;;;6.88;3.88;;;;;;;25.48;45.54;94995.06;5150064;27;20207;-44
2023/09/26 09:22:22;;;;;;;10.15;3.30;;;;;;;25.51;45.52;95002.47;5150637;27;20198;-45
2023/09/26 09:24:54;;;;;;;13.55;4.55;;;;;;;25.49;45.63;95007.94;5150271;27;20288;-45
2023/09/26 09:27:34;;;;;;;12.07;4.10;;;;;;;25.52;45.87;94993.59;5149997;27;20219;-45
2023/09/26 09:30:05;;;;;;;11.45;3.88;;;;;;;25.51;45.71;94995.41;5148257;27;20232;-47
2023/09/26 09:32:32;;;;;;;15.57;3.90;;;;;;;25.51;46.05;94997.22;5150507;27;20195;-44
2023/09/26 09:34:59;;;;;;;10.57;3.58;;;;;;;25.47;46.69;95002.09;5149888;27;20200;-45
2023/09/26 09:37:28;;;;;;;9.93;3.50;;;;;;;25.55;46.87;94990.53;5149877;27;20195;-45
2023/09/26 09:39:57;;;;;;;13.98;4.15;;;;;;;25.57;45.59;94991.09;5149474;27;20191;-45
2023/09/26 09:42:26;;;;;;;9.65;3.47;;;;;;;25.56;45.53;95002.63;5131597;27;20679;-45
2023/09/26 09:44:56;;;;;;;15.77;4.20;;;;;;;25.63;45.69;94999.88;5147872;27;20219;-45
2023/09/26 09:47:25;;;;;;;22.45;3.92;;;;;;;25.61;45.89;94984.41;5150337;27;20183;-45
2023/09/26 09:49:53;;;;;;;9.60;4.13;;;;;;;25.58;45.51;94997.16;5149456;27;20681;-47
2023/09/26 09:52:22;;;;;;;8.82;3.05;;;;;;;25.51;45.76;94984.94;5150585;27;20183;-44
2023/09/26 09:54:53;;;;;;;11.98;3.97;;;;;;;25.49;46.02;94991.41;5149932;27;20207;-45
2023/09/26 09:57:23;;;;;;;8.40;3.38;;;;;;;25.50;46.14;94991.19;5150146;27;20642;-47
2023/09/26 09:59:51;;;;;;;14.00;3.60;;;;;;;25.41;46.47;94979.44;5150200;27;20198;-45
2023/09/26 10:02:22;;;;;;;10.52;3.88;;;;;;;25.28;46.33;94958.69;5150070;27;20207;-44
2023/09/26 10:04:55;;;;;;;8.95;3.67;;;;;;;25.39;46.88;94978.06;5149762;27;20902;-45
2023/09/26 10:07:24;;;;;;;11.45;3.65;;;;;;;25.38;46.79;94972.03;5149902;27;20198;-45
2023/09/26 10:09:54;;;;;;;22.27;5.22;;;;;;;25.58;46.97;94976.19;5149927;27;20260;-44
2023/09/26 10:12:23;;;;;;;14.18;3.50;;;;;;;25.69;46.51;94978.84;5149302;27;20202;-46
2023/09/26 10:14:49;;;;;;;6.80;3.67;;;;;;;25.81;46.66;94972.84;5149469;27;20678;-45
2023/09/26 10:17:19;;;;;;;15.85;4.00;;;;;;;25.91;46.37;94967.88;5149714;27;20684;-46
2023/09/26 10:19:48;;;;;;;8.70;4.05;;;;;;;25.72;47.08;94961.84;5149429;27;20191;-44
2023/09/26 10:22:17;;;;;;;16.27;4.25;;;;;;;25.58;47.58;94968.34;5149944;27;20627;-44
2023/09/26 10:24:49;;;;;;;16.55;4.25;;;;;;;25.39;47.94;94959.72;5146934;27;20232;-45
2023/09/26 10:27:24;;;;;;;9.75;4.03;;;;;;;25.16;48.40;94973.53;5152559;27;20658;-45
2023/09/26 10:29:53;;;;;;;12.18;3.83;;;;;;;25.03;48.29;94962.19;5153243;27;20744;-45
2023/09/26 10:32:28;;;;;;;14.73;4.35;;;;;;;24.74;48.83;94955.09;5153278;27;20275;-45
2023/09/26 10:34:58;;;;;;;14.50;4.00;;;;;;;24.57;49.49;94957.50;5153524;27;20646;-45
2023/09/26 10:37:27;;;;;;;11.20;4.30;;;;;;;24.67;49.86;94957.78;5153636;27;20195;-44
2023/09/26 10:39:53;;;;;;;14.35;4.20;;;;;;;24.71;49.84;94958.16;5152330;27;20199;-45
2023/09/26 10:42:22;;;;;;;14.23;4.35;;;;;;;24.71;49.45;94953.72;5153114;27;20708;-45
2023/09/26 10:44:50;;;;;;;11.30;3.95;;;;;;;24.72;50.31;94947.47;5155727;27;20603;-55
2023/09/26 10:47:19;;;;;;;14.40;4.57;;;;;;;24.74;50.10;94952.47;5150612;27;20199;-45
2023/09/26 10:49:46;;;;;;;15.30;3.92;;;;;;;24.78;50.18;94958.88;5152621;27;20195;-45
2023/09/26 10:52:15;;;;;;;12.65;3.95;;;;;;;24.73;50.89;94941.22;5153345;27;20192;-45
2023/09/26 10:54:44;;;;;;;14.65;4.75;;;;;;;24.92;50.63;94941.22;5136248;27;20287;-43
2023/09/26 10:57:17;;;;;;;10.98;4.05;;;;;;;25.18;50.04;94946.13;5152817;27;20188;-46
2023/09/26 10:59:45;;;;;;;16.92;5.05;;;;;;;25.16;49.60;94939.50;5152159;27;20212;-46
2023/09/26 11:02:12;;;;;;;10.85;4.43;;;;;;;25.14;49.78;94937.13;5152885;27;20184;-44
2023/09/26 11:04:39;;;;;;;13.77;4.95;;;;;;;24.94;49.82;94916.41;5155695;27;20278;-45
2023/09/26 11:07:06;;;;;;;8.82;4.38;;;;;;;25.00;49.99;94940.91;5154896;27;20234;-43
2023/09/26 11:09:40;;;;;;;11.93;4.43;;;;;;;24.91;50.44;94935.16;5153620;27;20196;-43
2023/09/26 11:12:07;;;;;;;13.13;4.50;;;;;;;24.87;50.97;94928.78;5152868;27;20228;-43
2023/09/26 11:14:34;;;;;;;9.23;4.43;;;;;;;24.86;50.87;94927.16;5153386;27;20626;-44
2023/09/26 11:17:00;;;;;;;13.43;4.40;;;;;;;24.75;51.12;94933.97;5156825;27;20179;-44
2023/09/26 11:19:28;;;;;;;12.95;4.82;;;;;;;24.70;51.21;94933.81;5157241;27;20179;-44
2023/09/26 11:21:55;;;;;;;8.30;4.70;;;;;;;24.61;51.55;94936.94;5155040;27;20672;-43
2023/09/26 11:24:23;;;;;;;10.85;4.38;;;;;;;24.43;51.75;94927.28;5155738;27;20187;-44
2023/09/26 11:26:54;;;;;;;14.45;4.32;;;;;;;24.41;51.78;94930.13;5152746;27;20622;-44
2023/09/26 11:29:20;;;;;;;12.75;4.72;;;;;;;24.32;52.70;94930.59;5154186;27;20213;-44